Time,TemperatureF,DewpointF,PressureIn,WindDirection,WindDirectionDegrees,WindSpeedMPH,WindSpeedGustMPH,Humidity,HourlyPrecipIn,Conditions,Clouds,dailyrainin,SolarRadiationWatts/m^2,SoftwareType,DateUTC
2017-06-28 00:03:00,71.8,62.3,30.06,ESE,112,7.6,7.6,72,0.00,CLR,,0.00,0.0,WeatherDisplay:10.37,2017-06-28 05:03:00,
2017-06-28 00:08:00,71.6,62.1,30.09,East,90,6.9,6.9,72,0.00,CLR,,0.00,0.0,WeatherDisplay:10.37,2017-06-28 05:08:00,
2017-06-28 00:13:00,71.4,62.3,30.09,ESE,112,5.8,5.8,73,0.00,CLR,,0.00,0.0,WeatherDisplay:10.37,2017-06-28 05:13:00,
2017-06-28 00:18:00,71.4,62.3,30.09,East,90,6.9,6.9,73,0.00,CLR,,0.00,0.0,WeatherDisplay:10.37,2017-06-28 05:18:00,
2017-06-28 00:23:00,71.4,62.3,30.06,East,90,8.1,8.1,73,0.00,CLR,,0.00,0.0,WeatherDisplay:10.37,2017-06-28 05:23:00,
2017-06-28 00:28:00,71.4,62.3,30.06,NE,45,6.2,6.2,73,0.00,CLR,,0.00,0.0,WeatherDisplay:10.37,2017-06-28 05:28:00,
2017-06-28 00:33:00,71.4,61.9,30.06,East,90,6.7,6.7,72,0.00,CLR,,0.00,0.0,WeatherDisplay:10.37,2017-06-28 05:33:00,
2017-06-28 00:38:00,71.4,61.9,30.06,ESE,112,8.1,8.1,72,0.00,CLR,,0.00,0.0,WeatherDisplay:10.37,2017-06-28 05:38:00,
2017-06-28 00:43:00,71.4,61.9,30.06,East,90,8.1,8.1,72,0.00,CLR,,0.00,0.0,WeatherDisplay:10.37,2017-06-28 05:43:00,
2017-06-28 00:48:00,71.2,61.7,30.06,East,90,5.8,5.8,72,0.00,CLR,,0.00,0.0,WeatherDisplay:10.37,2017-06-28 05:48:00,
2017-06-28 00:53:00,70.9,61.8,30.06,ESE,112,5.8,5.8,73,0.00,CLR,,0.00,0.0,WeatherDisplay:10.37,2017-06-28 05:53:00,
2017-06-28 00:58:00,70.9,61.8,30.06,ESE,112,5.8,5.8,73,0.00,CLR,,0.00,0.0,WeatherDisplay:10.37,2017-06-28 05:58:00,
2017-06-28 01:03:00,70.7,62.0,30.06,East,90,5.8,5.8,74,0.00,CLR,,0.00,0.0,WeatherDisplay:10.37,2017-06-28 06:03:00,
2017-06-28 01:08:00,70.5,62.2,30.06,ESE,112,4.6,4.6,75,0.00,CLR,,0.00,0.0,WeatherDisplay:10.37,2017-06-28 06:08:00,
2017-06-28 01:13:00,70.2,62.2,30.06,East,90,5.8,5.8,76,0.00,CLR,,0.00,0.0,WeatherDisplay:10.37,2017-06-28 06:13:00,
2017-06-28 01:18:00,70.2,62.2,30.06,ESE,112,5.8,5.8,76,0.00,CLR,,0.00,0.0,WeatherDisplay:10.37,2017-06-28 06:18:00,
2017-06-28 01:23:00,70.2,62.2,30.06,ESE,112,5.8,5.8,76,0.00,CLR,,0.00,0.0,WeatherDisplay:10.37,2017-06-28 06:23:00,
2017-06-28 01:28:00,70.2,61.9,30.06,ESE,112,7.6,7.6,75,0.00,CLR,,0.00,0.0,WeatherDisplay:10.37,2017-06-28 06:28:00,
2017-06-28 01:33:00,70.2,61.9,30.06,ESE,112,5.8,5.8,75,0.00,CLR,,0.00,0.0,WeatherDisplay:10.37,2017-06-28 06:33:00,
2017-06-28 01:38:00,70.0,61.7,30.03,East,90,4.6,4.6,75,0.00,CLR,,0.00,0.0,WeatherDisplay:10.37,2017-06-28 06:38:00,
2017-06-28 01:44:00,69.8,61.9,30.03,East,90,4.9,4.9,76,0.00,CLR,,0.00,0.0,WeatherDisplay:10.37,2017-06-28 06:44:00,
2017-06-28 01:48:00,69.6,62.1,30.03,ESE,112,5.8,5.8,77,0.00,CLR,,0.00,0.0,WeatherDisplay:10.37,2017-06-28 06:48:00,
2017-06-28 01:53:00,69.8,61.9,30.03,ESE,112,5.9,6.2,76,0.00,CLR,,0.00,0.0,WeatherDisplay:10.37,2017-06-28 06:53:00,
2017-06-28 01:58:00,69.8,61.9,30.03,SE,135,5.8,6.2,76,0.00,CLR,,0.00,0.0,WeatherDisplay:10.37,2017-06-28 06:58:00,
2017-06-28 02:03:00,69.8,61.9,30.03,ESE,112,5.8,5.8,76,0.00,CLR,,0.00,0.0,WeatherDisplay:10.37,2017-06-28 07:03:00,
2017-06-28 02:08:00,69.8,61.9,30.03,East,90,6.9,6.9,76,0.00,CLR,,0.00,0.0,WeatherDisplay:10.37,2017-06-28 07:08:00,
2017-06-28 02:14:00,69.8,61.9,30.03,ESE,112,8.1,8.1,76,0.00,CLR,,0.00,0.0,WeatherDisplay:10.37,2017-06-28 07:14:00,
2017-06-28 02:19:00,69.8,61.9,30.03,ESE,112,9.2,9.2,76,0.00,CLR,,0.00,0.0,WeatherDisplay:10.37,2017-06-28 07:19:00,
2017-06-28 02:24:00,70.0,62.1,30.03,ESE,112,8.1,8.1,76,0.00,CLR,,0.00,0.0,WeatherDisplay:10.37,2017-06-28 07:24:00,
2017-06-28 02:29:00,69.8,61.9,30.03,ESE,112,5.8,5.8,76,0.00,CLR,,0.00,0.0,WeatherDisplay:10.37,2017-06-28 07:29:00,
2017-06-28 02:34:00,69.8,62.3,30.03,East,90,5.8,5.8,77,0.00,CLR,,0.00,0.0,WeatherDisplay:10.37,2017-06-28 07:34:00,
2017-06-28 02:39:00,69.8,62.3,30.03,ESE,112,4.6,4.6,77,0.00,CLR,,0.00,0.0,WeatherDisplay:10.37,2017-06-28 07:39:00,
2017-06-28 02:44:00,69.4,62.3,30.03,SE,135,4.0,4.0,78,0.00,CLR,,0.00,0.0,WeatherDisplay:10.37,2017-06-28 07:44:00,
2017-06-28 02:49:00,69.4,62.3,30.03,SE,135,5.8,5.8,78,0.00,CLR,,0.00,0.0,WeatherDisplay:10.37,2017-06-28 07:49:00,
2017-06-28 02:54:00,69.4,62.6,30.03,SE,135,8.1,8.1,79,0.00,CLR,,0.00,0.0,WeatherDisplay:10.37,2017-06-28 07:54:00,
2017-06-28 02:59:00,69.4,62.6,30.03,East,90,5.8,5.8,79,0.00,CLR,,0.00,0.0,WeatherDisplay:10.37,2017-06-28 07:59:00,
2017-06-28 03:04:00,69.4,62.6,30.03,SE,135,6.9,6.9,79,0.00,CLR,,0.00,0.0,WeatherDisplay:10.37,2017-06-28 08:04:00,
2017-06-28 03:09:00,69.4,62.6,30.03,SE,135,5.9,5.9,79,0.00,CLR,,0.00,0.0,WeatherDisplay:10.37,2017-06-28 08:09:00,
2017-06-28 03:14:00,69.3,62.5,30.03,ESE,112,7.6,7.6,79,0.00,CLR,,0.00,0.0,WeatherDisplay:10.37,2017-06-28 08:14:00,
2017-06-28 03:19:00,69.4,62.6,30.03,SE,135,5.8,5.8,79,0.00,CLR,,0.00,0.0,WeatherDisplay:10.37,2017-06-28 08:19:00,
2017-06-28 03:24:00,69.4,62.6,30.03,ESE,112,5.9,5.9,79,0.00,CLR,,0.00,0.0,WeatherDisplay:10.37,2017-06-28 08:24:00,
2017-06-28 03:29:00,69.4,62.6,30.03,East,90,6.9,6.9,79,0.00,CLR,,0.00,0.0,WeatherDisplay:10.37,2017-06-28 08:29:00,
2017-06-28 03:34:00,69.4,62.6,30.03,ESE,112,6.9,6.9,79,0.00,CLR,,0.00,0.0,WeatherDisplay:10.37,2017-06-28 08:34:00,
2017-06-28 03:39:00,69.4,62.6,30.03,ESE,112,5.8,6.7,79,0.00,CLR,,0.00,0.0,WeatherDisplay:10.37,2017-06-28 08:39:00,
2017-06-28 03:44:00,69.4,63.0,30.03,East,90,7.6,7.6,80,0.00,CLR,,0.00,0.0,WeatherDisplay:10.37,2017-06-28 08:44:00,
2017-06-28 03:49:00,69.3,62.8,30.03,ESE,112,8.1,8.1,80,0.00,CLR,,0.00,0.0,WeatherDisplay:10.37,2017-06-28 08:49:00,
2017-06-28 03:54:00,69.3,62.8,30.00,East,90,6.9,6.9,80,0.00,CLR,,0.00,0.0,WeatherDisplay:10.37,2017-06-28 08:54:00,
2017-06-28 03:59:00,69.3,62.8,30.00,ESE,112,8.1,8.1,80,0.00,CLR,,0.00,0.0,WeatherDisplay:10.37,2017-06-28 08:59:00,
2017-06-28 04:04:00,69.3,62.8,30.00,ESE,112,6.9,6.9,80,0.00,CLR,,0.00,0.0,WeatherDisplay:10.37,2017-06-28 09:04:00,
2017-06-28 04:09:00,69.4,63.0,30.03,SE,135,9.2,9.2,80,0.00,CLR,,0.00,0.0,WeatherDisplay:10.37,2017-06-28 09:09:00,
2017-06-28 04:14:00,69.6,63.2,30.03,ESE,112,6.9,6.9,80,0.00,CLR,,0.00,0.0,WeatherDisplay:10.37,2017-06-28 09:14:00,
2017-06-28 04:19:00,69.4,63.0,30.03,ESE,112,8.1,8.1,80,0.00,CLR,,0.00,0.0,WeatherDisplay:10.37,2017-06-28 09:19:00,
2017-06-28 04:24:00,69.3,62.8,30.00,East,90,8.1,8.1,80,0.00,CLR,,0.00,0.0,WeatherDisplay:10.37,2017-06-28 09:24:00,
2017-06-28 04:29:00,69.1,63.0,30.00,East,90,8.1,8.1,81,0.00,CLR,,0.00,0.0,WeatherDisplay:10.37,2017-06-28 09:29:00,
2017-06-28 04:34:00,69.1,63.0,30.00,East,90,7.1,7.1,81,0.00,CLR,,0.00,0.0,WeatherDisplay:10.37,2017-06-28 09:34:00,
2017-06-28 04:39:00,69.1,63.0,30.03,ESE,112,6.9,6.9,81,0.00,CLR,,0.00,0.0,WeatherDisplay:10.37,2017-06-28 09:39:00,
2017-06-28 04:44:00,69.1,63.0,30.03,ESE,112,8.1,8.1,81,0.00,CLR,,0.00,0.0,WeatherDisplay:10.37,2017-06-28 09:44:00,
2017-06-28 04:49:00,69.1,63.0,30.03,ESE,112,9.2,9.2,81,0.00,CLR,,0.00,0.0,WeatherDisplay:10.37,2017-06-28 09:49:00,
2017-06-28 04:54:00,68.9,62.8,30.00,ESE,112,8.3,8.3,81,0.00,CLR,,0.00,0.0,WeatherDisplay:10.37,2017-06-28 09:54:00,
2017-06-28 04:59:00,68.9,62.8,30.00,ESE,112,8.1,8.1,81,0.00,CLR,,0.00,0.0,WeatherDisplay:10.37,2017-06-28 09:59:00,
2017-06-28 05:04:00,68.7,63.0,30.00,ESE,112,8.3,8.3,82,0.00,CLR,,0.00,0.0,WeatherDisplay:10.37,2017-06-28 10:04:00,
2017-06-28 05:09:00,68.9,63.2,30.00,South,180,10.4,10.4,82,0.00,CLR,,0.00,0.0,WeatherDisplay:10.37,2017-06-28 10:09:00,
2017-06-28 05:14:00,68.7,63.0,30.00,ESE,112,5.8,5.8,82,0.00,CLR,,0.00,0.0,WeatherDisplay:10.37,2017-06-28 10:14:00,
2017-06-28 05:18:00,68.7,63.0,30.00,ESE,112,8.1,8.1,82,0.00,CLR,,0.00,0.0,WeatherDisplay:10.37,2017-06-28 10:18:00,
2017-06-28 05:23:00,68.7,63.0,30.00,East,90,8.7,8.7,82,0.00,CLR,,0.00,0.0,WeatherDisplay:10.37,2017-06-28 10:23:00,
2017-06-28 05:28:00,68.9,62.8,30.00,ESE,112,8.1,8.1,81,0.00,CLR,,0.00,0.0,WeatherDisplay:10.37,2017-06-28 10:28:00,
2017-06-28 05:33:00,68.9,62.8,30.00,East,90,6.2,6.2,81,0.00,CLR,,0.00,0.0,WeatherDisplay:10.37,2017-06-28 10:33:00,
2017-06-28 05:35:00,68.7,62.7,30.03,East,90,6.2,6.2,81,0.00,CLR,,0.00,0.0,WeatherDisplay:10.37,2017-06-28 10:35:00,
2017-06-28 05:40:00,68.7,63.0,30.03,ESE,112,8.1,8.1,82,0.00,CLR,,0.00,0.0,WeatherDisplay:10.37,2017-06-28 10:40:00,
2017-06-28 05:45:00,68.7,63.0,30.03,East,90,8.1,8.1,82,0.00,CLR,,0.00,0.0,WeatherDisplay:10.37,2017-06-28 10:45:00,
2017-06-28 05:50:00,68.5,62.8,30.03,ESE,112,4.9,4.9,82,0.00,CLR,,0.00,0.0,WeatherDisplay:10.37,2017-06-28 10:50:00,
2017-06-28 05:55:00,68.4,63.0,30.03,East,90,4.6,4.6,83,0.00,CLR,,0.00,0.0,WeatherDisplay:10.37,2017-06-28 10:55:00,
2017-06-28 06:00:00,68.4,63.0,30.03,ESE,112,5.8,5.8,83,0.00,CLR,,0.00,0.0,WeatherDisplay:10.37,2017-06-28 11:00:00,
2017-06-28 06:05:00,68.4,63.0,30.03,SE,135,5.9,5.9,83,0.00,CLR,,0.00,0.0,WeatherDisplay:10.37,2017-06-28 11:05:00,
2017-06-28 06:10:00,68.4,63.0,30.03,ESE,112,5.8,5.8,83,0.00,CLR,,0.00,0.0,WeatherDisplay:10.37,2017-06-28 11:10:00,
2017-06-28 06:15:00,68.4,63.0,30.03,South,180,5.9,5.9,83,0.00,CLR,,0.00,0.0,WeatherDisplay:10.37,2017-06-28 11:15:00,
2017-06-28 06:20:00,68.2,63.2,30.06,ESE,112,4.6,4.6,84,0.00,CLR,,0.00,0.0,WeatherDisplay:10.37,2017-06-28 11:20:00,
2017-06-28 06:25:00,68.2,63.2,30.06,ESE,112,3.6,3.6,84,0.00,CLR,,0.00,0.0,WeatherDisplay:10.37,2017-06-28 11:25:00,
2017-06-28 06:30:00,68.0,63.3,30.06,ESE,112,2.6,0.0,85,0.00,CLR,,0.00,0.0,WeatherDisplay:10.37,2017-06-28 11:30:00,
2017-06-28 06:35:00,67.8,63.5,30.06,ESE,112,4.6,4.6,86,0.00,CLR,,0.00,0.0,WeatherDisplay:10.37,2017-06-28 11:35:00,
2017-06-28 06:40:00,67.8,63.5,30.06,ESE,112,4.9,4.9,86,0.00,CLR,,0.00,0.0,WeatherDisplay:10.37,2017-06-28 11:40:00,
2017-06-28 06:45:00,68.4,63.7,30.06,SE,135,4.0,4.0,85,0.00,CLR,,0.00,0.0,WeatherDisplay:10.37,2017-06-28 11:45:00,
2017-06-28 06:50:00,68.5,63.5,30.06,ESE,112,5.8,5.8,84,0.00,CLR,,0.00,0.0,WeatherDisplay:10.37,2017-06-28 11:50:00,
2017-06-28 06:55:00,68.7,63.3,30.06,East,90,5.9,5.9,83,0.00,CLR,,0.00,0.0,WeatherDisplay:10.37,2017-06-28 11:55:00,
2017-06-28 07:00:00,69.1,63.4,30.06,SE,135,6.9,6.9,82,0.00,CLR,,0.00,0.0,WeatherDisplay:10.37,2017-06-28 12:00:00,
2017-06-28 07:01:00,69.1,63.4,30.06,East,90,6.9,6.9,82,0.00,CLR,,0.00,0.0,WeatherDisplay:10.37,2017-06-28 12:01:00,